Time;durP1;ratioP1;P1;durP2;ratioP2;P2;SDS_P1;SDS_P2;PMS_P1;PMS_P2;Temp;Humidity;BMP_temperature;BMP_pressure;BME280_temperature;BME280_humidity;BME280_pressure;Samples;Min_cycle;Max_cycle;Signal;HPM_P1;HPM_P2
2022/01/20 00:00:43;;;;;;;;;;;;;;;3.47;84.23;100763.19;4979828;28;1352;-88
2022/01/20 00:03:13;;;;;;;;;;;;;;;3.49;84.46;100768.38;4979357;28;1902;-89
2022/01/20 00:26:55;;;;;;;;;;;;;;;3.20;85.10;100759.16;4997030;28;626;-90
2022/01/20 00:29:30;;;;;;;;;;;;;;;3.21;84.76;100756.22;4996551;28;1311;-89
2022/01/20 00:32:06;;;;;;;;;;;;;;;3.16;85.04;100763.34;4996170;28;1488;-89
2022/01/20 00:35:04;;;;;;;;;;;;;;;3.09;84.68;100766.13;4996501;28;863;-88
2022/01/20 00:37:17;;;;;;;;;;;;;;;3.05;84.95;100775.75;4996355;28;1021;-87
2022/01/20 00:39:43;;;;;;;;;;;;;;;3.06;85.19;100776.56;4996826;28;1253;-88
2022/01/20 00:42:08;;;;;;;;;;;;;;;3.10;84.24;100775.06;4978528;28;1898;-88
2022/01/20 00:44:34;;;;;;;;;;;;;;;3.06;84.39;100766.59;4990333;28;1478;-88
2022/01/20 00:46:59;;;;;;;;;;;;;;;3.04;84.80;100779.50;4978551;28;1699;-89
2022/01/20 00:49:24;;;;;;;;;;;;;;;3.02;84.14;100778.91;4976868;28;1814;-88
2022/01/20 00:51:49;;;;;;;;;;;;;;;3.00;84.73;100781.81;4978561;28;947;-88
2022/01/20 00:54:14;;;;;;;;;;;;;;;3.03;83.98;100780.56;4978576;28;1565;-89
2022/01/20 00:56:40;;;;;;;;;;;;;;;3.04;84.20;100777.63;4978637;28;1726;-88
2022/01/20 00:59:05;;;;;;;;;;;;;;;3.08;83.91;100782.56;4978451;28;1923;-88
2022/01/20 01:01:30;;;;;;;;;;;;;;;3.03;84.03;100781.38;4978174;28;1710;-88
2022/01/20 01:03:55;;;;;;;;;;;;;;;3.01;83.94;100794.28;4995936;28;1965;-88
2022/01/20 01:08:58;;;;;;;;;;;;;;;3.09;84.07;100790.47;4996049;28;1260;-88
2022/01/20 01:11:24;;;;;;;;;;;;;;;3.12;84.00;100790.03;4978194;28;1775;-88
2022/01/20 01:13:50;;;;;;;;;;;;;;;3.14;84.11;100793.34;4978181;28;1748;-87
2022/01/20 01:16:18;;;;;;;;;;;;;;;3.16;84.13;100799.31;4974983;28;1469;-88
2022/01/20 01:21:30;;;;;;;;;;;;;;;3.15;84.12;100789.56;4995662;28;606;-89
2022/01/20 01:23:55;;;;;;;;;;;;;;;3.12;84.38;100779.22;4995663;28;1903;-89
2022/01/20 01:26:24;;;;;;;;;;;;;;;3.16;84.60;100785.81;4977870;28;1699;-88
2022/01/20 01:28:50;;;;;;;;;;;;;;;3.14;84.64;100774.41;4995493;28;1162;-89
2022/01/20 01:33:58;;;;;;;;;;;;;;;3.15;84.90;100773.31;4995981;28;902;-88
2022/01/20 01:36:26;;;;;;;;;;;;;;;3.16;84.71;100780.41;4979176;28;1328;-89
2022/01/20 01:38:51;;;;;;;;;;;;;;;3.15;84.78;100770.63;4978506;28;1383;-88
2022/01/20 01:41:26;;;;;;;;;;;;;;;3.14;84.60;100774.41;4981109;28;1922;-88
2022/01/20 01:43:52;;;;;;;;;;;;;;;3.14;84.83;100781.69;4995977;28;1898;-88
2022/01/20 01:46:17;;;;;;;;;;;;;;;3.11;84.96;100774.84;4977878;28;1368;-88
2022/01/20 01:48:43;;;;;;;;;;;;;;;3.12;84.88;100768.38;4977845;28;1174;-89
2022/01/20 01:51:10;;;;;;;;;;;;;;;3.17;84.99;100754.19;4973755;28;1177;-89
2022/01/20 01:53:46;;;;;;;;;;;;;;;3.16;84.39;100774.16;4970868;28;1487;-89
2022/01/20 01:56:11;;;;;;;;;;;;;;;3.19;84.83;100774.53;4959658;28;1716;-88
2022/01/20 01:58:36;;;;;;;;;;;;;;;3.20;84.38;100769.97;4977300;28;1544;-89
2022/01/20 02:01:02;;;;;;;;;;;;;;;3.20;84.51;100770.78;4977095;28;1583;-89
2022/01/20 02:03:29;;;;;;;;;;;;;;;3.16;84.87;100758.75;4977050;28;1953;-89
2022/01/20 02:06:10;;;;;;;;;;;;;;;3.17;85.25;100755.00;4977722;28;1193;-90
2022/01/20 02:08:43;;;;;;;;;;;;;;;3.16;85.27;100757.94;4977586;28;1719;-89
2022/01/20 02:19:21;;;;;;;;;;;;;;;3.22;85.05;100751.63;4995134;28;1648;-88
2022/01/20 02:21:50;;;;;;;;;;;;;;;3.26;85.03;100748.25;4977206;28;1910;-89
2022/01/20 02:24:16;;;;;;;;;;;;;;;3.30;85.24;100767.56;4977206;28;1947;-89
2022/01/20 02:26:41;;;;;;;;;;;;;;;3.30;85.18;100760.28;4977585;28;1320;-88
2022/01/20 02:29:06;;;;;;;;;;;;;;;3.30;85.04;100759.44;4977141;28;1190;-88
2022/01/20 02:31:32;;;;;;;;;;;;;;;3.30;85.09;100749.44;4977006;28;1471;-87
2022/01/20 02:33:58;;;;;;;;;;;;;;;3.31;85.36;100750.28;4994704;28;862;-88
2022/01/20 02:36:23;;;;;;;;;;;;;;;3.29;85.71;100731.56;4977191;28;1252;-88
2022/01/20 02:38:57;;;;;;;;;;;;;;;3.31;85.99;100744.88;4977377;28;1279;-88
2022/01/20 02:46:50;;;;;;;;;;;;;;;3.25;86.24;100721.41;4994733;28;1812;-87
2022/01/20 02:49:16;;;;;;;;;;;;;;;3.25;86.23;100721.41;4994410;28;1208;-88
2022/01/20 02:51:51;;;;;;;;;;;;;;;3.23;86.25;100727.03;4977368;28;1351;-88
2022/01/20 02:54:17;;;;;;;;;;;;;;;3.24;86.60;100725.16;4976944;28;1324;-88
2022/01/20 02:56:42;;;;;;;;;;;;;;;3.24;86.31;100717.88;4976584;28;2026;-88
2022/01/20 02:59:07;;;;;;;;;;;;;;;3.26;86.71;100721.19;4976631;28;1901;-88
2022/01/20 03:01:33;;;;;;;;;;;;;;;3.26;86.19;100707.66;4976695;28;948;-89
2022/01/20 03:04:00;;;;;;;;;;;;;;;3.25;86.48;100711.41;4976008;28;1961;-88
2022/01/20 03:06:25;;;;;;;;;;;;;;;3.25;86.54;100708.72;4970572;28;1256;-89
2022/01/20 03:08:50;;;;;;;;;;;;;;;3.25;86.51;100716.81;4976511;28;1331;-88
2022/01/20 03:11:15;;;;;;;;;;;;;;;3.26;86.57;100698.72;4975584;28;1677;-88
2022/01/20 03:13:40;;;;;;;;;;;;;;;3.26;87.10;100693.31;4969694;28;1518;-88
2022/01/20 03:16:07;;;;;;;;;;;;;;;3.25;86.48;100692.47;4974571;28;1353;-88
2022/01/20 03:18:32;;;;;;;;;;;;;;;3.21;86.89;100695.88;4985663;28;1746;-88
2022/01/20 03:20:57;;;;;;;;;;;;;;;3.13;87.31;100694.31;4975190;28;1207;-88
2022/01/20 03:23:22;;;;;;;;;;;;;;;3.09;87.44;100690.41;4979920;28;1890;-88
2022/01/20 03:25:47;;;;;;;;;;;;;;;3.06;87.22;100690.03;4992459;28;1953;-89
2022/01/20 03:28:12;;;;;;;;;;;;;;;3.03;87.72;100685.91;4987608;28;1739;-88
2022/01/20 03:30:37;;;;;;;;;;;;;;;3.01;88.09;100693.41;4977564;28;1221;-88
2022/01/20 03:33:03;;;;;;;;;;;;;;;2.96;87.66;100704.91;4979777;28;1742;-89
2022/01/20 03:35:28;;;;;;;;;;;;;;;2.92;88.08;100700.16;4978436;28;1233;-88
2022/01/20 03:37:53;;;;;;;;;;;;;;;2.90;88.25;100680.63;4980209;28;1767;-88
2022/01/20 03:40:20;;;;;;;;;;;;;;;2.92;88.25;100689.34;4990049;28;1280;-88
2022/01/20 03:42:46;;;;;;;;;;;;;;;2.96;87.72;100690.56;4992455;28;1936;-87
2022/01/20 03:45:11;;;;;;;;;;;;;;;2.99;88.03;100696.34;5006332;28;1061;-88
2022/01/20 03:47:36;;;;;;;;;;;;;;;3.03;86.88;100691.31;4976636;28;1847;-88
2022/01/20 03:52:29;;;;;;;;;;;;;;;3.08;87.40;100675.22;4997623;28;1339;-88
2022/01/20 03:54:54;;;;;;;;;;;;;;;3.08;87.14;100674.41;4996512;28;1999;-88
2022/01/20 03:57:20;;;;;;;;;;;;;;;3.08;87.07;100680.63;4979333;28;1853;-87
2022/01/20 03:59:45;;;;;;;;;;;;;;;3.09;87.11;100670.63;5001465;23;2173;-87
2022/01/20 04:02:11;;;;;;;;;;;;;;;3.08;87.22;100666.28;5000188;28;1974;-87
2022/01/20 04:04:36;;;;;;;;;;;;;;;3.10;86.54;100656.91;4993657;28;1784;-88
2022/01/20 04:07:01;;;;;;;;;;;;;;;3.09;86.32;100666.06;4987321;28;1688;-88
2022/01/20 04:09:26;;;;;;;;;;;;;;;3.10;86.38;100656.91;4991793;28;1759;-89
2022/01/20 04:11:52;;;;;;;;;;;;;;;3.14;85.87;100668.09;4979564;28;1323;-89
2022/01/20 04:14:17;;;;;;;;;;;;;;;3.13;85.38;100658.34;4979755;28;1733;-88
2022/01/20 04:19:21;;;;;;;;;;;;;;;3.12;85.59;100659.38;4992517;28;1679;-89
2022/01/20 04:21:47;;;;;;;;;;;;;;;3.08;85.92;100648.19;4984908;28;1187;-88
2022/01/20 04:24:12;;;;;;;;;;;;;;;3.08;85.74;100648.19;4977507;28;1890;-87
2022/01/20 04:26:38;;;;;;;;;;;;;;;3.09;85.54;100649.84;4967004;28;1823;-89
2022/01/20 04:29:04;;;;;;;;;;;;;;;3.09;86.13;100657.94;4960232;28;1293;-88
2022/01/20 04:31:30;;;;;;;;;;;;;;;3.12;86.05;100652.09;4966661;28;1807;-88
2022/01/20 04:33:56;;;;;;;;;;;;;;;3.14;85.63;100658.09;4980495;28;1889;-88
2022/01/20 04:36:22;;;;;;;;;;;;;;;3.16;85.93;100661.38;4980027;28;1240;-89
2022/01/20 04:38:47;;;;;;;;;;;;;;;3.15;86.11;100662.44;4980078;28;1286;-88
2022/01/20 04:41:12;;;;;;;;;;;;;;;3.09;86.71;100659.81;4979279;28;1280;-90
2022/01/20 04:43:38;;;;;;;;;;;;;;;3.05;86.91;100662.19;4979315;28;1906;-88
2022/01/20 04:46:22;;;;;;;;;;;;;;;3.06;86.83;100661.13;4980103;28;1383;-89
2022/01/20 04:49:04;;;;;;;;;;;;;;;3.07;86.71;100668.16;4979152;28;1204;-89
2022/01/20 04:59:35;;;;;;;;;;;;;;;2.70;92.07;100691.69;4992529;28;1601;-89
2022/01/20 05:02:00;;;;;;;;;;;;;;;2.74;92.62;100713.69;4961373;28;1906;-88
2022/01/20 05:04:26;;;;;;;;;;;;;;;2.75;92.22;100712.63;4979297;28;1321;-88
2022/01/20 05:06:57;;;;;;;;;;;;;;;2.76;92.11;100717.00;4996592;28;1734;-88
2022/01/20 05:09:22;;;;;;;;;;;;;;;2.76;92.76;100730.50;4979398;28;1357;-89
2022/01/20 05:11:52;;;;;;;;;;;;;;;2.69;93.09;100743.25;4978819;28;1387;-88
2022/01/20 05:14:17;;;;;;;;;;;;;;;2.60;93.51;100740.84;4979082;28;1236;-88
2022/01/20 05:16:42;;;;;;;;;;;;;;;2.60;93.41;100753.53;4997300;28;753;-88
2022/01/20 05:19:08;;;;;;;;;;;;;;;2.52;90.93;100773.56;4973893;28;1659;-89
2022/01/20 05:21:33;;;;;;;;;;;;;;;2.52;90.13;100760.03;4975167;28;1501;-88
2022/01/20 05:23:58;;;;;;;;;;;;;;;2.42;88.33;100781.31;4960247;28;2051;-88
2022/01/20 05:26:23;;;;;;;;;;;;;;;2.41;88.25;100786.94;4959158;28;1061;-89
2022/01/20 05:28:48;;;;;;;;;;;;;;;2.37;88.43;100796.53;4960042;28;1109;-88
2022/01/20 05:31:13;;;;;;;;;;;;;;;2.34;87.29;100797.81;4959377;28;1191;-89
2022/01/20 05:33:39;;;;;;;;;;;;;;;2.31;86.76;100805.50;4976805;28;1045;-89
2022/01/20 05:36:04;;;;;;;;;;;;;;;2.32;88.33;100797.19;4960785;28;1241;-88
2022/01/20 05:38:29;;;;;;;;;;;;;;;2.33;88.55;100801.53;4971628;28;1763;-88
2022/01/20 05:40:54;;;;;;;;;;;;;;;2.34;89.00;100788.88;4971618;28;1588;-88
2022/01/20 05:43:22;;;;;;;;;;;;;;;2.34;89.98;100813.19;4959464;28;1894;-88
2022/01/20 05:45:47;;;;;;;;;;;;;;;2.30;89.02;100815.47;4969786;28;1470;-89
2022/01/20 05:48:15;;;;;;;;;;;;;;;2.30;88.29;100817.38;4970046;28;1398;-89
2022/01/20 05:50:40;;;;;;;;;;;;;;;2.26;87.71;100811.56;4960051;28;1400;-88
2022/01/20 05:53:06;;;;;;;;;;;;;;;2.24;86.85;100816.34;4977216;28;1363;-88
2022/01/20 05:55:32;;;;;;;;;;;;;;;2.22;87.38;100818.44;4978205;28;1307;-88
2022/01/20 05:58:00;;;;;;;;;;;;;;;2.20;87.81;100813.28;4973543;28;1406;-89
2022/01/20 06:00:25;;;;;;;;;;;;;;;2.21;89.07;100816.81;4988609;28;1476;-89
2022/01/20 06:05:35;;;;;;;;;;;;;;;2.12;86.87;100837.84;4998855;28;610;-88
2022/01/20 06:08:00;;;;;;;;;;;;;;;2.08;87.36;100823.13;4980521;28;1347;-89
2022/01/20 06:10:26;;;;;;;;;;;;;;;2.06;85.54;100837.88;4974002;28;1532;-88
2022/01/20 06:12:51;;;;;;;;;;;;;;;2.04;85.32;100840.78;4977472;28;1410;-88
2022/01/20 06:15:16;;;;;;;;;;;;;;;2.08;87.13;100847.41;4979913;28;1397;-87
2022/01/20 06:17:41;;;;;;;;;;;;;;;2.08;85.54;100846.59;4977764;28;1605;-86
2022/01/20 06:20:07;;;;;;;;;;;;;;;2.10;86.62;100834.53;4979177;28;1296;-86
2022/01/20 06:22:32;;;;;;;;;;;;;;;2.07;85.96;100837.66;4979899;28;1894;-87
2022/01/20 06:24:57;;;;;;;;;;;;;;;2.10;86.46;100842.63;4979931;28;1271;-86
2022/01/20 06:27:23;;;;;;;;;;;;;;;2.14;86.86;100848.41;4997575;28;911;-87
2022/01/20 06:29:48;;;;;;;;;;;;;;;2.17;86.33;100856.09;4979630;28;1272;-87
2022/01/20 06:32:13;;;;;;;;;;;;;;;2.19;83.45;100864.81;4978938;28;1209;-87
2022/01/20 06:34:38;;;;;;;;;;;;;;;2.22;80.88;100864.34;4980204;28;971;-87
2022/01/20 06:37:03;;;;;;;;;;;;;;;2.18;82.55;100872.06;4980591;28;983;-87
2022/01/20 06:39:28;;;;;;;;;;;;;;;2.16;82.77;100886.84;4997491;28;1202;-87
2022/01/20 06:41:53;;;;;;;;;;;;;;;2.12;82.58;100902.66;4997496;28;803;-88
2022/01/20 06:44:21;;;;;;;;;;;;;;;2.06;80.51;100906.19;4980986;28;1878;-89
2022/01/20 06:46:48;;;;;;;;;;;;;;;2.02;81.22;100899.59;4999808;28;1047;-88
2022/01/20 06:49:14;;;;;;;;;;;;;;;1.93;81.08;100906.25;4982611;28;1374;-88
2022/01/20 06:51:39;;;;;;;;;;;;;;;1.89;81.30;100911.25;4982715;28;1230;-88
2022/01/20 06:54:04;;;;;;;;;;;;;;;1.90;81.68;100920.19;4982593;28;1121;-88
2022/01/20 06:56:29;;;;;;;;;;;;;;;1.92;82.14;100923.50;4984516;28;1212;-89
2022/01/20 06:58:54;;;;;;;;;;;;;;;1.96;83.82;100932.00;4984347;28;1330;-88
2022/01/20 07:01:20;;;;;;;;;;;;;;;1.96;81.68;100961.72;4990162;28;1295;-89
2022/01/20 07:03:47;;;;;;;;;;;;;;;1.96;80.39;100940.91;4996962;28;1948;-88
2022/01/20 07:06:12;;;;;;;;;;;;;;;1.96;81.06;100951.72;5014090;28;1280;-88
2022/01/20 07:08:37;;;;;;;;;;;;;;;1.95;81.65;100960.88;4996353;28;1346;-88
2022/01/20 07:11:02;;;;;;;;;;;;;;;1.93;81.88;100959.41;4977545;28;1222;-88
2022/01/20 07:13:31;;;;;;;;;;;;;;;1.94;83.85;100972.72;4976751;28;1181;-88
2022/01/20 07:15:56;;;;;;;;;;;;;;;1.95;83.26;100960.03;4977071;28;1344;-87
2022/01/20 07:18:22;;;;;;;;;;;;;;;1.89;84.41;100959.84;4977118;28;1122;-88
2022/01/20 07:20:47;;;;;;;;;;;;;;;1.84;85.01;100973.16;4976943;28;1307;-87
2022/01/20 07:23:12;;;;;;;;;;;;;;;1.83;84.10;100968.78;4976775;28;1902;-87
2022/01/20 07:25:37;;;;;;;;;;;;;;;1.85;84.10;100977.50;4995712;28;1098;-88
2022/01/20 07:28:03;;;;;;;;;;;;;;;1.84;83.80;100996.63;4980913;28;1189;-87
2022/01/20 07:30:28;;;;;;;;;;;;;;;1.84;83.98;101010.09;4980699;28;1185;-86
2022/01/20 07:32:53;;;;;;;;;;;;;;;1.81;82.43;101008.66;4979546;28;1947;-87
2022/01/20 07:35:18;;;;;;;;;;;;;;;1.83;82.92;101017.38;4970761;28;1285;-88
2022/01/20 07:37:44;;;;;;;;;;;;;;;1.84;82.52;101021.72;4980825;28;1431;-88
2022/01/20 07:40:09;;;;;;;;;;;;;;;1.84;82.05;101016.34;4980281;28;1343;-88
2022/01/20 07:42:35;;;;;;;;;;;;;;;1.85;82.83;101014.47;4980535;28;1953;-88
2022/01/20 07:45:00;;;;;;;;;;;;;;;1.83;81.66;101011.13;4980484;28;1246;-87
2022/01/20 07:47:25;;;;;;;;;;;;;;;1.84;81.90;101010.94;4979983;28;1182;-88
2022/01/20 07:49:50;;;;;;;;;;;;;;;1.83;81.19;101028.16;4980164;28;1313;-88
2022/01/20 07:52:16;;;;;;;;;;;;;;;1.75;81.09;101009.50;4980252;28;851;-87
2022/01/20 07:54:41;;;;;;;;;;;;;;;1.73;81.64;101029.63;4980140;28;1232;-88
2022/01/20 07:57:07;;;;;;;;;;;;;;;1.68;81.53;101019.47;4980249;28;1245;-87
2022/01/20 07:59:32;;;;;;;;;;;;;;;1.71;80.67;101027.13;4980237;28;1387;-87
2022/01/20 08:01:57;;;;;;;;;;;;;;;1.75;80.43;101036.50;4980482;28;1182;-88
2022/01/20 08:04:23;;;;;;;;;;;;;;;1.77;80.58;101025.50;4979832;28;1906;-87
2022/01/20 08:06:48;;;;;;;;;;;;;;;1.74;80.24;101029.44;4980111;28;1202;-87
2022/01/20 08:09:14;;;;;;;;;;;;;;;1.74;79.62;101048.31;4979851;28;1233;-86
2022/01/20 08:11:40;;;;;;;;;;;;;;;1.74;79.25;101039.38;4979678;28;1344;-88
2022/01/20 08:14:05;;;;;;;;;;;;;;;1.72;79.47;101042.28;4980174;28;1096;-87
2022/01/20 08:16:30;;;;;;;;;;;;;;;1.67;79.53;101034.00;4979846;28;1221;-87
2022/01/20 08:18:56;;;;;;;;;;;;;;;1.61;79.57;101042.94;4979900;28;1053;-88
2022/01/20 08:21:21;;;;;;;;;;;;;;;1.59;78.41;101057.66;4979942;28;1276;-88
2022/01/20 08:23:46;;;;;;;;;;;;;;;1.59;78.01;101061.19;4979506;28;2026;-87
2022/01/20 08:26:11;;;;;;;;;;;;;;;1.65;77.61;101073.84;4979876;28;1064;-88
2022/01/20 08:28:36;;;;;;;;;;;;;;;1.72;77.56;101068.44;4980098;28;1307;-88
2022/01/20 08:31:01;;;;;;;;;;;;;;;1.81;77.37;101070.72;4979833;28;1248;-87
2022/01/20 08:33:27;;;;;;;;;;;;;;;1.82;76.44;101071.56;4979360;28;1170;-87
2022/01/20 08:35:52;;;;;;;;;;;;;;;1.82;76.06;101067.00;4979715;28;1154;-87
2022/01/20 08:38:17;;;;;;;;;;;;;;;1.84;76.92;101062.22;4997142;28;878;-88
2022/01/20 08:40:43;;;;;;;;;;;;;;;1.85;76.28;101069.28;4979433;28;1329;-88
2022/01/20 08:43:08;;;;;;;;;;;;;;;1.85;76.70;101063.88;4979135;28;1898;-88
2022/01/20 08:45:35;;;;;;;;;;;;;;;1.91;76.16;101067.59;4979546;28;1335;-88
2022/01/20 08:48:00;;;;;;;;;;;;;;;1.94;76.07;101063.66;4979567;28;1146;-89
2022/01/20 08:50:27;;;;;;;;;;;;;;;1.98;76.31;101067.59;4979409;28;1292;-87
2022/01/20 08:52:52;;;;;;;;;;;;;;;1.98;76.74;101068.41;4979425;28;1201;-88
2022/01/20 08:55:17;;;;;;;;;;;;;;;1.92;77.35;101076.53;4979371;28;1340;-88
2022/01/20 08:57:43;;;;;;;;;;;;;;;1.89;78.14;101085.88;4979537;28;1229;-88
2022/01/20 09:00:09;;;;;;;;;;;;;;;1.82;78.65;101076.97;4979242;28;1264;-88
2022/01/20 09:02:36;;;;;;;;;;;;;;;1.73;78.29;101091.69;4979009;28;1898;-88
2022/01/20 09:05:02;;;;;;;;;;;;;;;1.73;77.99;101089.84;4996860;28;921;-89
2022/01/20 09:07:27;;;;;;;;;;;;;;;1.81;77.91;101086.91;4979108;28;1309;-88
2022/01/20 09:09:55;;;;;;;;;;;;;;;1.84;77.29;101082.97;4979129;28;1194;-87
2022/01/20 09:17:41;;;;;;;;;;;;;;;1.77;76.89;101077.59;4996769;28;610;-88
2022/01/20 09:20:07;;;;;;;;;;;;;;;1.74;76.79;101075.31;4979057;28;1383;-87
2022/01/20 09:22:32;;;;;;;;;;;;;;;1.75;76.71;101078.84;4978914;28;1903;-87
2022/01/20 09:24:57;;;;;;;;;;;;;;;1.77;77.14;101084.88;4978459;28;1285;-88
2022/01/20 09:27:22;;;;;;;;;;;;;;;1.77;77.03;101083.00;4978835;28;1273;-87
2022/01/20 09:29:48;;;;;;;;;;;;;;;1.82;76.71;101085.06;4996951;28;1272;-87
2022/01/20 09:32:16;;;;;;;;;;;;;;;1.85;76.23;101084.66;4978873;28;1206;-87
2022/01/20 09:34:41;;;;;;;;;;;;;;;1.93;76.54;101089.81;4979323;28;1518;-88
2022/01/20 09:37:07;;;;;;;;;;;;;;;2.05;77.03;101095.41;4979097;28;1268;-88
2022/01/20 09:39:32;;;;;;;;;;;;;;;2.13;76.42;101098.72;4978923;28;1277;-87
2022/01/20 09:42:00;;;;;;;;;;;;;;;2.21;75.60;101090.38;4996663;28;842;-87
2022/01/20 09:44:26;;;;;;;;;;;;;;;2.28;76.07;101101.19;4978696;28;1957;-88
2022/01/20 09:46:51;;;;;;;;;;;;;;;2.22;75.80;101105.53;4978630;28;1186;-87
2022/01/20 09:49:16;;;;;;;;;;;;;;;2.16;76.29;101105.56;4977656;28;1178;-88
2022/01/20 09:51:42;;;;;;;;;;;;;;;2.13;76.59;101116.78;4978555;28;1253;-88
2022/01/20 09:54:08;;;;;;;;;;;;;;;2.11;76.06;101121.59;4978629;28;1339;-88
2022/01/20 09:56:33;;;;;;;;;;;;;;;2.13;76.54;101116.78;4978368;28;1259;-87
2022/01/20 09:58:59;;;;;;;;;;;;;;;2.13;76.35;101120.31;4978434;28;1304;-88
2022/01/20 10:01:43;;;;;;;;;;;;;;;2.04;77.06;101126.97;4978229;28;1439;-87
2022/01/20 10:04:22;;;;;;;;;;;;;;;2.00;77.49;101120.34;4978864;28;1898;-88
2022/01/20 10:06:53;;;;;;;;;;;;;;;2.03;77.47;101119.09;4978595;28;1371;-87
2022/01/20 10:09:25;;;;;;;;;;;;;;;2.16;77.06;101116.38;4978869;28;1264;-87
2022/01/20 10:11:51;;;;;;;;;;;;;;;2.19;76.54;101124.06;4978200;28;1993;-87
2022/01/20 10:14:16;;;;;;;;;;;;;;;2.19;74.71;101115.97;4978622;28;728;-87
2022/01/20 10:19:26;;;;;;;;;;;;;;;2.31;73.72;101122.34;4953925;29;1760;-87
2022/01/20 10:21:51;;;;;;;;;;;;;;;2.20;73.54;101126.56;4919546;29;1209;-87
2022/01/20 10:24:17;;;;;;;;;;;;;;;2.19;75.07;101124.91;4919724;29;1919;-87
2022/01/20 10:26:42;;;;;;;;;;;;;;;2.15;73.79;101117.41;4919598;29;1296;-88
2022/01/20 10:29:09;;;;;;;;;;;;;;;2.10;74.81;101123.44;4919649;29;1205;-87
2022/01/20 10:31:36;;;;;;;;;;;;;;;2.14;75.11;101129.25;4919315;29;1180;-88
2022/01/20 10:34:06;;;;;;;;;;;;;;;2.19;74.96;101130.28;4919557;29;1194;-88
2022/01/20 10:36:38;;;;;;;;;;;;;;;2.20;74.32;101125.72;4919516;29;1193;-88
2022/01/20 10:39:04;;;;;;;;;;;;;;;2.10;74.61;101130.72;4919734;29;1313;-88
2022/01/20 10:41:36;;;;;;;;;;;;;;;2.15;75.25;101130.91;4919249;29;1250;-87
2022/01/20 10:44:07;;;;;;;;;;;;;;;2.22;76.69;101129.84;4935533;29;1894;-87
2022/01/20 10:46:46;;;;;;;;;;;;;;;2.21;76.59;101130.09;4934569;29;1153;-87
2022/01/20 10:49:12;;;;;;;;;;;;;;;2.18;75.57;101152.09;4918997;29;1218;-89
2022/01/20 10:51:37;;;;;;;;;;;;;;;2.20;75.56;101150.88;4918892;29;1296;-88
2022/01/20 10:54:07;;;;;;;;;;;;;;;2.26;75.03;101141.09;4936054;29;804;-88
2022/01/20 10:56:50;;;;;;;;;;;;;;;2.27;75.09;101132.78;4935939;29;990;-87
2022/01/20 10:59:16;;;;;;;;;;;;;;;2.24;76.19;101122.38;4919929;29;1222;-88
2022/01/20 11:01:41;;;;;;;;;;;;;;;2.23;74.95;101118.00;4939892;29;1156;-87
2022/01/20 11:04:06;;;;;;;;;;;;;;;2.27;73.29;101130.06;4923168;29;1903;-88
2022/01/20 11:06:34;;;;;;;;;;;;;;;2.24;72.53;101124.25;4923234;29;1163;-87
2022/01/20 11:09:00;;;;;;;;;;;;;;;2.19;73.55;101124.91;4924378;29;1286;-88
2022/01/20 11:11:25;;;;;;;;;;;;;;;2.20;73.94;101125.72;4942105;29;937;-88
2022/01/20 11:13:50;;;;;;;;;;;;;;;2.18;74.06;101112.44;4925158;29;1194;-88
2022/01/20 11:16:17;;;;;;;;;;;;;;;2.22;74.04;101139.81;4941348;29;1090;-89
2022/01/20 11:18:42;;;;;;;;;;;;;;;2.28;73.22;101125.50;4925171;29;1399;-88
2022/01/20 11:21:08;;;;;;;;;;;;;;;2.38;73.39;101120.50;4925152;29;1388;-88
2022/01/20 11:23:37;;;;;;;;;;;;;;;2.41;73.30;101124.63;4926196;29;1910;-89
2022/01/20 11:26:04;;;;;;;;;;;;;;;2.37;74.00;101134.22;4925078;29;1226;-89
2022/01/20 11:28:29;;;;;;;;;;;;;;;2.35;73.56;101130.88;4924874;29;1254;-88
2022/01/20 11:30:59;;;;;;;;;;;;;;;2.33;73.54;101122.16;4925078;29;1240;-89
2022/01/20 11:33:32;;;;;;;;;;;;;;;2.29;73.44;101132.56;4924758;29;1294;-88
2022/01/20 11:35:59;;;;;;;;;;;;;;;2.25;73.96;101145.66;4941925;29;994;-90
2022/01/20 11:38:35;;;;;;;;;;;;;;;2.17;74.39;101126.97;4925572;29;1537;-88
2022/01/20 11:41:02;;;;;;;;;;;;;;;2.10;75.14;101120.75;4927803;29;1688;-88
2022/01/20 11:43:32;;;;;;;;;;;;;;;2.11;75.19;101117.00;4940714;29;1957;-88
2022/01/20 11:46:02;;;;;;;;;;;;;;;2.14;74.81;101126.53;4927080;29;1370;-88
2022/01/20 11:48:28;;;;;;;;;;;;;;;2.21;75.13;101122.00;4927202;29;1357;-89
2022/01/20 11:51:07;;;;;;;;;;;;;;;2.35;73.69;101131.72;4928833;29;1355;-88
2022/01/20 11:53:33;;;;;;;;;;;;;;;2.46;72.37;101124.84;4927307;29;1237;-88
2022/01/20 11:55:58;;;;;;;;;;;;;;;2.55;72.35;101100.03;4926157;29;1406;-88
2022/01/20 11:58:25;;;;;;;;;;;;;;;2.52;71.48;101100.50;4925682;29;1222;-89
2022/01/20 12:01:00;;;;;;;;;;;;;;;2.45;72.27;101097.00;4925388;29;1213;-88
2022/01/20 12:03:26;;;;;;;;;;;;;;;2.46;72.72;101104.06;4925883;29;1891;-88
2022/01/20 12:05:59;;;;;;;;;;;;;;;2.46;72.26;101104.06;4927134;29;1204;-88
2022/01/20 12:08:24;;;;;;;;;;;;;;;2.40;73.00;101114.84;4924158;29;1362;-90
2022/01/20 12:11:17;;;;;;;;;;;;;;;2.33;72.22;101108.66;4923601;29;1167;-89
2022/01/20 12:13:51;;;;;;;;;;;;;;;2.31;72.95;101106.16;4924481;29;1393;-89
2022/01/20 12:16:37;;;;;;;;;;;;;;;2.29;73.27;101105.56;4908924;29;1229;-88
2022/01/20 12:19:25;;;;;;;;;;;;;;;2.28;74.13;101102.03;4922814;29;1547;-89
2022/01/20 12:21:51;;;;;;;;;;;;;;;2.23;74.80;101101.81;4924382;29;1339;-88
2022/01/20 12:24:16;;;;;;;;;;;;;;;2.17;75.12;101115.34;4924621;29;1903;-89
2022/01/20 12:26:41;;;;;;;;;;;;;;;2.11;75.41;101113.47;4924064;29;1341;-88
2022/01/20 12:29:07;;;;;;;;;;;;;;;2.08;76.07;101108.50;4924337;29;1351;-89
2022/01/20 12:31:56;;;;;;;;;;;;;;;2.10;76.68;101115.34;4923875;29;1340;-88
2022/01/20 12:34:22;;;;;;;;;;;;;;;2.12;76.58;101107.03;4923892;29;1119;-88
2022/01/20 16:19:13;;;;;;;;;;;;;;;1.39;81.24;101171.78;5019134;23;1971;-88
2022/01/20 16:21:40;;;;;;;;;;;;;;;1.39;81.13;101165.53;4994166;28;1752;-87
2022/01/20 16:24:05;;;;;;;;;;;;;;;1.41;80.88;101174.28;4982379;28;1936;-88
2022/01/20 16:26:30;;;;;;;;;;;;;;;1.42;81.02;101187.56;4988436;28;1739;-89
2022/01/20 16:28:56;;;;;;;;;;;;;;;1.44;81.09;101206.25;4972667;28;1395;-87
2022/01/20 16:31:22;;;;;;;;;;;;;;;1.40;80.72;101181.53;4972732;28;1479;-85
2022/01/20 16:33:47;;;;;;;;;;;;;;;1.38;80.51;101207.03;4980351;28;1309;-89
2022/01/20 16:36:12;;;;;;;;;;;;;;;1.31;80.31;101190.84;4980431;28;1321;-88
2022/01/20 16:38:37;;;;;;;;;;;;;;;1.31;79.57;101184.63;4980611;28;1827;-88
2022/01/20 16:41:04;;;;;;;;;;;;;;;1.35;79.17;101191.28;4978962;28;1336;-88
2022/01/20 16:43:30;;;;;;;;;;;;;;;1.35;78.90;101212.84;4979429;28;1968;-87
2022/01/20 16:45:56;;;;;;;;;;;;;;;1.37;79.06;101221.56;4980475;28;1391;-88
2022/01/20 16:48:24;;;;;;;;;;;;;;;1.35;79.65;101215.56;4974218;28;1321;-86
2022/01/20 16:50:50;;;;;;;;;;;;;;;1.27;80.89;101226.53;4961904;28;1237;-87
2022/01/20 16:53:15;;;;;;;;;;;;;;;1.18;82.17;101246.59;4967080;28;1537;-88
2022/01/20 16:55:41;;;;;;;;;;;;;;;0.87;82.31;101210.16;4977295;28;1656;-88
2022/01/20 16:58:06;;;;;;;;;;;;;;;1.23;82.11;101241.44;4980321;28;1509;-88
2022/01/20 17:00:31;;;;;;;;;;;;;;;1.25;81.91;101245.59;4983169;28;1396;-87
2022/01/20 17:05:27;;;;;;;;;;;;;;;1.29;81.52;101256.78;4993815;28;1237;-86
2022/01/20 17:07:52;;;;;;;;;;;;;;;1.28;80.90;101255.97;4989604;28;1613;-86
2022/01/20 17:10:17;;;;;;;;;;;;;;;1.32;81.00;101257.22;4964939;28;1913;-86
2022/01/20 17:12:42;;;;;;;;;;;;;;;1.34;80.57;101259.72;4970711;28;1788;-85
2022/01/20 17:15:07;;;;;;;;;;;;;;;1.33;80.16;101258.06;4982436;28;1214;-87
2022/01/20 17:17:33;;;;;;;;;;;;;;;1.33;80.00;101264.28;4991918;28;1789;-88
2022/01/20 17:19:58;;;;;;;;;;;;;;;1.33;80.23;101264.28;4972319;28;1814;-87
2022/01/20 17:22:23;;;;;;;;;;;;;;;1.30;80.91;101258.47;4976307;28;1910;-87
2022/01/20 17:24:48;;;;;;;;;;;;;;;1.26;81.50;101247.25;4963701;28;1057;-87
2022/01/20 17:27:13;;;;;;;;;;;;;;;1.22;82.41;101253.25;4986678;28;1459;-88
2022/01/20 17:29:39;;;;;;;;;;;;;;;1.21;83.17;101246.19;4977937;28;1462;-87
2022/01/20 17:32:06;;;;;;;;;;;;;;;1.18;83.33;101262.78;4982050;28;1525;-88
2022/01/20 17:34:31;;;;;;;;;;;;;;;1.14;82.99;101279.34;4993399;28;1258;-88
2022/01/20 17:36:56;;;;;;;;;;;;;;;1.12;82.95;101281.41;5000168;28;1675;-87
2022/01/20 17:39:23;;;;;;;;;;;;;;;1.14;83.06;101282.03;4999602;28;1441;-88
2022/01/20 17:41:48;;;;;;;;;;;;;;;1.16;83.20;101283.72;4983385;28;1451;-88
2022/01/20 17:44:14;;;;;;;;;;;;;;;1.18;83.23;101300.53;4984821;28;1887;-89
2022/01/20 17:46:39;;;;;;;;;;;;;;;1.17;83.39;101329.34;5004263;28;1498;-88